createdAt,value
2022-11-15T00:01:15.666Z,6.88
2022-11-15T00:04:07.094Z,6.93
2022-11-15T00:06:54.194Z,6.96
2022-11-15T00:09:45.983Z,6.98
2022-11-15T00:12:36.497Z,6.86
2022-11-15T00:15:33.694Z,6.84
2022-11-15T00:18:29.767Z,6.68
2022-11-15T00:21:19.618Z,6.62
2022-11-15T00:24:08.269Z,6.49
2022-11-15T00:26:56.918Z,6.55
2022-11-15T00:32:58.121Z,6.39
2022-11-15T00:35:48.472Z,6.36
2022-11-15T00:38:39.226Z,6.39
2022-11-15T00:41:26.473Z,6.43
2022-11-15T00:44:17.009Z,6.43
2022-11-15T00:47:10.908Z,6.38
2022-11-15T00:49:59.387Z,6.27
2022-11-15T00:52:53.900Z,6.11
2022-11-15T00:55:41.102Z,6.14
2022-11-15T00:58:33.657Z,6.17
2022-11-15T01:01:25.694Z,6.19
2022-11-15T01:04:16.324Z,6.17
2022-11-15T01:07:05.693Z,6.19
2022-11-15T01:10:02.303Z,6.23
2022-11-15T01:12:50.637Z,6.29
2022-11-15T01:15:44.287Z,6.37
2022-11-15T01:18:32.458Z,6.38
2022-11-15T01:21:21.460Z,6.38
2022-11-15T01:24:18.670Z,6.36
2022-11-15T01:27:05.764Z,6.25
2022-11-15T01:29:54.910Z,6.32
2022-11-15T01:33:20.163Z,6.32
2022-11-15T01:36:19.087Z,6.32
2022-11-15T01:39:10.175Z,6.26
2022-11-15T01:42:00.894Z,6.17
2022-11-15T01:44:52.932Z,6.09
2022-11-15T01:47:46.856Z,6.09
2022-11-15T01:50:34.377Z,6.07
2022-11-15T01:53:32.151Z,6.02
2022-11-15T01:56:31.364Z,5.95
2022-11-15T01:59:26.670Z,5.94
2022-11-15T02:02:16.734Z,5.94
2022-11-15T02:05:10.118Z,5.84
2022-11-15T02:08:02.852Z,5.70
2022-11-15T02:10:50.169Z,5.67
2022-11-15T02:13:38.203Z,5.61
2022-11-15T02:16:48.598Z,5.60
2022-11-15T02:20:04.517Z,5.64
2022-11-15T02:23:25.427Z,5.71
2022-11-15T02:26:37.074Z,5.72
2022-11-15T02:29:46.040Z,5.63
2022-11-15T02:33:21.856Z,5.55
2022-11-15T02:36:32.642Z,5.58
2022-11-15T02:39:43.528Z,5.65
2022-11-15T02:42:55.478Z,5.68
2022-11-15T02:45:51.495Z,5.70
2022-11-15T02:48:42.158Z,5.72
2022-11-15T02:51:35.844Z,5.70
2022-11-15T02:54:33.472Z,5.71
2022-11-15T02:57:28.321Z,5.71
2022-11-15T03:00:20.732Z,5.75
2022-11-15T03:03:39.998Z,5.79
2022-11-15T03:06:43.321Z,5.77
2022-11-15T03:09:58.178Z,5.73
2022-11-15T03:12:57.900Z,5.66
2022-11-15T03:16:03.620Z,5.65
2022-11-15T03:19:01.049Z,5.66
2022-11-15T03:22:24.120Z,5.63
2022-11-15T03:25:27.661Z,5.47
2022-11-15T03:28:18.240Z,5.37
2022-11-15T03:31:30.762Z,5.34
2022-11-15T03:34:29.212Z,5.37
2022-11-15T03:37:32.262Z,5.38
2022-11-15T03:40:49.882Z,5.40
2022-11-15T03:44:29.562Z,5.42
2022-11-15T03:47:34.396Z,5.44
2022-11-15T03:51:01.046Z,5.46
2022-11-15T03:54:05.396Z,5.53
2022-11-15T03:57:04.915Z,5.42
2022-11-15T04:00:04.061Z,5.32
2022-11-15T04:03:02.854Z,5.15
2022-11-15T04:06:00.915Z,5.23
2022-11-15T04:09:04.774Z,5.29
2022-11-15T04:11:52.226Z,5.32
2022-11-15T04:15:22.343Z,5.32
2022-11-15T04:18:16.599Z,5.28
2022-11-15T04:21:25.812Z,5.32
2022-11-15T04:24:14.191Z,5.39
2022-11-15T04:27:03.813Z,5.42
2022-11-15T04:29:52.307Z,5.43
2022-11-15T04:32:40.283Z,5.43
2022-11-15T04:35:35.719Z,5.46
2022-11-15T04:38:25.506Z,5.50
2022-11-15T04:41:20.641Z,5.49
2022-11-15T04:44:09.572Z,5.49
2022-11-15T04:46:58.069Z,5.47
2022-11-15T04:49:46.194Z,5.44
2022-11-15T04:52:37.522Z,5.42
2022-11-15T04:55:25.319Z,5.38
2022-11-15T04:58:16.433Z,5.30
2022-11-15T05:01:13.378Z,5.21
2022-11-15T05:04:20.906Z,5.18
2022-11-15T05:07:09.448Z,5.18
2022-11-15T05:09:56.199Z,5.21
2022-11-15T05:12:44.174Z,5.30
2022-11-15T05:15:35.246Z,5.40
2022-11-15T05:18:23.898Z,5.44
2022-11-15T05:21:14.333Z,5.50
2022-11-15T05:24:04.841Z,5.58
2022-11-15T05:26:51.389Z,5.57
2022-11-15T05:29:39.497Z,5.55
2022-11-15T05:32:28.808Z,5.51
2022-11-15T05:35:40.430Z,5.53
2022-11-15T05:38:28.982Z,5.57
2022-11-15T05:41:27.703Z,5.63
2022-11-15T05:44:22.642Z,5.66
2022-11-15T05:47:22.907Z,5.68
2022-11-15T05:50:20.268Z,5.68
2022-11-15T05:53:20.880Z,5.57
2022-11-15T05:56:24.920Z,5.65
2022-11-15T05:59:48.430Z,5.58
2022-11-15T06:06:02.165Z,5.57
2022-11-15T06:09:02.259Z,5.59
2022-11-15T06:12:28.664Z,5.69
2022-11-15T06:15:38.643Z,5.68
2022-11-15T06:18:50.594Z,5.74
2022-11-15T06:21:42.669Z,5.54
2022-11-15T06:24:44.751Z,5.55
2022-11-15T06:27:50.564Z,5.61
2022-11-15T06:31:05.943Z,5.68
2022-11-15T06:34:21.600Z,5.70
2022-11-15T06:37:09.575Z,5.73
2022-11-15T06:39:58.859Z,5.76
2022-11-15T06:42:46.553Z,5.85
2022-11-15T06:45:33.716Z,5.92
2022-11-15T06:48:20.281Z,5.99
2022-11-15T06:51:11.695Z,5.96
2022-11-15T06:53:58.852Z,5.87
2022-11-15T06:56:49.389Z,5.78
2022-11-15T07:00:11.228Z,5.80
2022-11-15T07:03:01.967Z,5.77
2022-11-15T07:05:55.707Z,5.74
2022-11-15T07:08:43.822Z,5.75
2022-11-15T07:11:35.633Z,5.75
2022-11-15T07:14:22.421Z,5.73
2022-11-15T07:17:14.551Z,5.72
2022-11-15T07:20:03.174Z,5.82
2022-11-15T07:22:50.204Z,5.96
2022-11-15T07:25:38.325Z,6.09
2022-11-15T07:28:27.518Z,6.12
2022-11-15T07:31:23.750Z,6.20
2022-11-15T07:34:15.596Z,6.26
2022-11-15T07:37:26.764Z,6.24
2022-11-15T07:43:34.537Z,6.29
2022-11-15T07:46:22.875Z,6.36
2022-11-15T07:49:10.957Z,6.48
2022-11-15T07:51:57.970Z,6.61
2022-11-15T07:54:46.743Z,6.68
2022-11-15T07:57:44.869Z,6.68
2022-11-15T08:00:46.448Z,6.91
2022-11-15T08:03:44.198Z,7.01
2022-11-15T08:06:33.910Z,7.09
2022-11-15T08:10:05.452Z,7.25
2022-11-15T08:13:28.320Z,7.54
2022-11-15T08:16:42.799Z,7.70
2022-11-15T08:19:36.940Z,7.82
2022-11-15T08:22:27.762Z,8.02
2022-11-15T08:26:04.267Z,8.17
2022-11-15T08:28:57.167Z,8.30
2022-11-15T08:31:49.984Z,8.48
2022-11-15T08:34:40.890Z,8.83
2022-11-15T08:37:29.543Z,9.18
2022-11-15T08:40:24.349Z,9.37
2022-11-15T08:43:17.572Z,9.55
2022-11-15T08:46:16.659Z,9.94
2022-11-15T08:49:04.909Z,10.61
2022-11-15T08:51:55.896Z,11.25
2022-11-15T08:54:50.603Z,11.64
2022-11-15T08:57:51.874Z,12.14
2022-11-15T09:00:41.166Z,12.66
2022-11-15T09:03:36.312Z,13.30
2022-11-15T09:06:25.450Z,13.79
2022-11-15T09:09:13.602Z,14.33
2022-11-15T09:12:08.868Z,15.02
2022-11-15T09:14:59.317Z,15.76
2022-11-15T09:17:48.068Z,16.29
2022-11-15T09:20:37.130Z,16.78
2022-11-15T09:23:30.073Z,17.33
2022-11-15T09:26:17.627Z,17.74
2022-11-15T09:29:10.734Z,18.03
2022-11-15T09:31:58.414Z,18.39
2022-11-15T09:34:46.782Z,18.61
2022-11-15T09:37:36.158Z,18.97
2022-11-15T09:40:32.395Z,19.60
2022-11-15T09:43:31.526Z,20.10
2022-11-15T09:47:53.964Z,20.45
2022-11-15T09:50:50.240Z,20.81
2022-11-15T10:00:50.131Z,22.34
2022-11-15T10:03:37.659Z,22.83
2022-11-15T10:06:14.082Z,23.05
2022-11-15T10:09:01.928Z,22.94
2022-11-15T10:11:46.672Z,22.72
2022-11-15T10:14:29.558Z,22.62
2022-11-15T10:17:49.723Z,23.05
2022-11-15T10:21:09.690Z,23.94
2022-11-15T10:24:20.874Z,24.38
2022-11-15T10:27:12.483Z,23.96
2022-11-15T10:30:03.052Z,23.27
2022-11-15T10:32:39.219Z,22.38
2022-11-15T10:35:19.835Z,21.65
2022-11-15T10:38:20.823Z,21.33
2022-11-15T10:41:08.562Z,21.75
2022-11-15T10:43:43.089Z,22.72
2022-11-15T10:47:23.607Z,23.33
2022-11-15T10:50:58.268Z,23.27
2022-11-15T10:53:43.141Z,23.02
2022-11-15T10:56:19.278Z,23.50
2022-11-15T10:58:55.847Z,24.17
2022-11-15T11:01:32.660Z,24.40
2022-11-15T11:05:05.131Z,24.35
2022-11-15T11:08:17.059Z,24.10
2022-11-15T11:11:01.903Z,23.93
2022-11-15T11:13:40.642Z,23.57
2022-11-15T11:16:16.473Z,23.64
2022-11-15T11:19:16.170Z,23.82
2022-11-15T11:22:35.326Z,24.02
2022-11-15T11:25:36.510Z,24.56
2022-11-15T11:28:27.942Z,24.81
2022-11-15T11:31:40.203Z,24.59
2022-11-15T11:34:57.710Z,23.99
2022-11-15T11:37:40.397Z,23.05
2022-11-15T11:40:37.858Z,22.33
2022-11-15T11:43:36.165Z,21.59
2022-11-15T11:46:35.244Z,21.02
2022-11-15T11:49:37.206Z,20.56
2022-11-15T12:00:39.673Z,20.07
2022-11-15T12:03:35.929Z,20.25
2022-11-15T12:06:31.229Z,20.66
2022-11-15T12:09:18.743Z,21.23
2022-11-15T12:12:00.893Z,22.00
2022-11-15T12:14:45.750Z,22.99
2022-11-15T12:17:23.230Z,23.73
2022-11-15T12:20:34.941Z,24.12
2022-11-15T12:23:27.611Z,24.25
2022-11-15T12:26:23.987Z,24.08
2022-11-15T12:29:09.005Z,23.74
2022-11-15T12:31:51.843Z,22.95
2022-11-15T12:34:46.177Z,21.86
2022-11-15T12:37:39.450Z,20.97
2022-11-15T12:40:26.320Z,20.23
2022-11-15T12:43:18.134Z,19.68
2022-11-15T12:45:49.491Z,19.27
2022-11-15T12:48:17.559Z,18.97
2022-11-15T12:50:55.852Z,18.66
2022-11-15T12:54:34.173Z,18.31
2022-11-15T12:58:19.425Z,17.76
2022-11-15T13:01:54.485Z,17.12
2022-11-15T13:04:56.894Z,16.67
2022-11-15T13:07:57.780Z,16.35
2022-11-15T13:10:35.996Z,16.06
2022-11-15T13:13:46.177Z,15.93
2022-11-15T13:16:22.023Z,15.82
2022-11-15T13:18:58.681Z,15.76
2022-11-15T13:21:45.901Z,15.67
2022-11-15T13:24:23.201Z,15.70
2022-11-15T13:26:52.689Z,15.66
2022-11-15T13:29:28.752Z,15.54
2022-11-15T13:32:03.751Z,15.56
2022-11-15T13:35:21.079Z,15.55
2022-11-15T13:38:38.107Z,15.56
2022-11-15T13:41:46.589Z,15.59
2022-11-15T13:44:34.400Z,15.62
2022-11-15T13:47:19.904Z,15.54
2022-11-15T13:49:52.020Z,15.48
2022-11-15T13:52:23.273Z,15.34
2022-11-15T13:55:26.274Z,15.37
2022-11-15T13:58:01.763Z,15.44
2022-11-15T14:00:46.142Z,15.35
2022-11-15T14:03:47.629Z,15.21
2022-11-15T14:06:22.290Z,15.23
2022-11-15T14:09:04.835Z,15.19
2022-11-15T14:11:38.169Z,15.14
2022-11-15T14:14:10.323Z,15.15
2022-11-15T14:16:53.125Z,15.11
2022-11-15T14:19:24.426Z,15.01
2022-11-15T14:22:12.235Z,14.93
2022-11-15T14:25:20.253Z,14.91
2022-11-15T14:28:24.091Z,14.86
2022-11-15T14:31:28.881Z,14.75
2022-11-15T14:34:02.877Z,14.60
2022-11-15T14:36:35.594Z,14.50
2022-11-15T14:39:06.299Z,14.36
2022-11-15T14:41:42.637Z,14.23
2022-11-15T14:44:12.292Z,14.10
2022-11-15T14:46:41.493Z,13.98
2022-11-15T14:49:10.931Z,13.93
2022-11-15T14:51:39.841Z,13.92
2022-11-15T14:54:11.969Z,13.95
2022-11-15T14:56:41.587Z,13.90
2022-11-15T14:59:11.764Z,13.89
2022-11-15T15:01:41.033Z,13.86
2022-11-15T15:04:16.501Z,13.80
2022-11-15T15:06:44.591Z,13.73
2022-11-15T15:09:16.544Z,13.68
2022-11-15T15:11:45.350Z,13.63
2022-11-15T15:14:23.542Z,13.63
2022-11-15T15:16:53.725Z,13.61
2022-11-15T15:19:25.153Z,13.55
2022-11-15T15:21:56.325Z,13.49
2022-11-15T15:24:26.919Z,13.42
2022-11-15T15:27:04.011Z,13.41
2022-11-15T15:29:32.826Z,13.38
2022-11-15T15:32:04.955Z,13.35
2022-11-15T15:34:33.974Z,13.30
2022-11-15T15:37:25.601Z,13.25
2022-11-15T15:39:57.075Z,13.20
2022-11-15T15:42:26.071Z,13.20
2022-11-15T15:44:57.660Z,13.22
2022-11-15T15:47:26.678Z,13.23
2022-11-15T15:49:55.664Z,13.22
2022-11-15T15:52:26.112Z,13.22
2022-11-15T15:54:57.875Z,13.23
2022-11-15T15:57:27.885Z,13.21
2022-11-15T15:59:57.974Z,13.22
2022-11-15T16:02:39.156Z,13.20
2022-11-15T16:05:17.183Z,13.19
2022-11-15T16:07:46.084Z,13.22
2022-11-15T16:10:17.688Z,13.21
2022-11-15T16:13:22.717Z,13.19
2022-11-15T16:15:56.261Z,13.13
2022-11-15T16:18:28.558Z,13.03
2022-11-15T16:20:57.809Z,12.93
2022-11-15T16:23:26.603Z,12.83
2022-11-15T16:25:56.760Z,12.74
2022-11-15T16:28:32.736Z,12.66
2022-11-15T16:31:02.205Z,12.57
2022-11-15T16:33:35.007Z,12.57
2022-11-15T16:36:33.629Z,12.54
2022-11-15T16:39:05.153Z,12.55
2022-11-15T16:41:34.354Z,12.61
2022-11-15T16:44:09.923Z,12.68
2022-11-15T16:46:43.092Z,12.74
2022-11-15T16:49:16.233Z,12.68
2022-11-15T16:51:46.710Z,12.78
2022-11-15T16:54:23.557Z,12.78
2022-11-15T16:56:51.970Z,12.78
2022-11-15T16:59:21.263Z,12.75
2022-11-15T17:01:59.977Z,12.72
2022-11-15T17:04:33.120Z,12.63
2022-11-15T17:07:01.453Z,12.57
2022-11-15T17:09:31.110Z,12.54
2022-11-15T17:11:59.189Z,12.53
2022-11-15T17:14:30.491Z,12.51
2022-11-15T17:16:59.567Z,12.45
2022-11-15T17:19:33.771Z,12.36
2022-11-15T17:22:05.529Z,12.26
2022-11-15T17:24:39.638Z,12.22
2022-11-15T17:27:08.546Z,12.22
2022-11-15T17:29:43.675Z,12.24
2022-11-15T17:32:11.705Z,12.20
2022-11-15T17:34:44.547Z,12.11
2022-11-15T17:37:13.648Z,12.10
2022-11-15T17:39:41.755Z,12.10
2022-11-15T17:42:10.049Z,12.09
2022-11-15T17:44:42.258Z,12.05
2022-11-15T17:47:10.427Z,11.98
2022-11-15T17:49:42.677Z,11.94
2022-11-15T17:52:14.454Z,11.90
2022-11-15T17:54:42.343Z,11.89
2022-11-15T17:57:10.651Z,11.91
2022-11-15T17:59:40.276Z,11.93
2022-11-15T18:02:15.779Z,11.96
2022-11-15T18:04:43.832Z,11.96
2022-11-15T18:07:14.309Z,11.93
2022-11-15T18:09:44.506Z,11.85
2022-11-15T18:12:12.703Z,11.75
2022-11-15T18:14:42.056Z,11.75
2022-11-15T18:17:13.595Z,11.73
2022-11-15T18:19:42.611Z,11.72
2022-11-15T18:22:11.043Z,11.72
2022-11-15T18:24:41.527Z,11.71
2022-11-15T18:27:09.897Z,11.63
2022-11-15T18:29:38.244Z,11.53
2022-11-15T18:32:17.981Z,11.46
2022-11-15T18:34:54.937Z,11.45
2022-11-15T18:37:27.413Z,11.50
2022-11-15T18:39:59.606Z,11.53
2022-11-15T18:42:27.522Z,11.54
2022-11-15T18:44:56.711Z,11.54
2022-11-15T18:47:27.101Z,11.56
2022-11-15T18:50:02.632Z,11.53
2022-11-15T18:52:31.023Z,11.45
2022-11-15T18:55:13.735Z,11.37
2022-11-15T18:57:59.985Z,11.32
2022-11-15T19:00:36.646Z,11.32
2022-11-15T19:03:09.403Z,11.35
2022-11-15T19:05:43.743Z,11.41
2022-11-15T19:08:11.930Z,11.40
2022-11-15T19:11:18.429Z,11.44
2022-11-15T19:13:59.803Z,11.40
2022-11-15T19:16:34.869Z,11.34
2022-11-15T19:19:15.795Z,11.30
2022-11-15T19:21:46.200Z,11.30
2022-11-15T19:24:18.899Z,11.33
2022-11-15T19:26:52.699Z,11.23
2022-11-15T19:29:28.615Z,11.32
2022-11-15T19:32:04.020Z,11.26
2022-11-15T19:34:42.888Z,11.24
2022-11-15T19:37:18.595Z,11.21
2022-11-15T19:39:54.681Z,11.11
2022-11-15T19:42:23.812Z,11.09
2022-11-15T19:44:55.724Z,11.08
2022-11-15T19:47:31.744Z,11.05
2022-11-15T19:50:10.395Z,10.99
2022-11-15T19:52:46.628Z,10.97
2022-11-15T19:55:15.955Z,11.01
2022-11-15T19:57:45.084Z,11.07
2022-11-15T20:00:22.763Z,11.10
2022-11-15T20:02:54.540Z,11.16
2022-11-15T20:05:23.559Z,11.17
2022-11-15T20:07:51.771Z,11.18
2022-11-15T20:10:22.173Z,11.17
2022-11-15T20:12:50.289Z,11.18
2022-11-15T20:15:25.897Z,11.09
2022-11-15T20:18:01.869Z,10.97
2022-11-15T20:20:32.078Z,10.82
2022-11-15T20:23:03.623Z,10.74
2022-11-15T20:25:31.773Z,10.68
2022-11-15T20:28:11.377Z,10.67
2022-11-15T20:30:52.944Z,10.69
2022-11-15T20:33:25.614Z,10.73
2022-11-15T20:35:54.901Z,10.75
2022-11-15T20:38:23.829Z,10.84
2022-11-15T20:40:56.147Z,10.91
2022-11-15T20:43:35.860Z,10.93
2022-11-15T20:46:08.919Z,11.00
2022-11-15T20:48:38.446Z,11.06
2022-11-15T20:51:17.341Z,11.11
2022-11-15T20:53:47.770Z,11.16
2022-11-15T20:56:22.115Z,11.17
2022-11-15T20:58:56.648Z,11.17
2022-11-15T21:01:25.714Z,11.19
2022-11-15T21:03:58.269Z,11.22
2022-11-15T21:06:28.427Z,11.23
2022-11-15T21:10:03.745Z,11.20
2022-11-15T21:12:14.625Z,11.22
2022-11-15T21:14:49.239Z,11.15
2022-11-15T21:17:17.511Z,11.14
2022-11-15T21:19:47.468Z,11.12
2022-11-15T21:22:16.744Z,11.09
2022-11-15T21:24:48.268Z,11.10
2022-11-15T21:27:19.572Z,11.15
2022-11-15T21:29:52.565Z,11.14
2022-11-15T21:32:30.236Z,11.13
2022-11-15T21:35:00.607Z,11.03
2022-11-15T21:37:35.641Z,10.98
2022-11-15T21:40:05.573Z,11.01
2022-11-15T21:42:39.629Z,11.10
2022-11-15T21:45:08.222Z,11.13
2022-11-15T21:47:36.119Z,11.18
2022-11-15T21:50:06.147Z,11.22
2022-11-15T21:52:34.177Z,11.25
2022-11-15T21:55:02.538Z,11.23
2022-11-15T21:57:36.824Z,11.18
2022-11-15T22:00:27.707Z,11.14
2022-11-15T22:02:56.841Z,11.09
2022-11-15T22:05:26.112Z,11.05
2022-11-15T22:08:00.701Z,11.01
2022-11-15T22:10:37.613Z,11.00
2022-11-15T22:13:06.682Z,11.01
2022-11-15T22:15:35.532Z,11.04
2022-11-15T22:18:12.256Z,11.01
2022-11-15T22:21:00.602Z,10.96
2022-11-15T22:23:31.745Z,10.87
2022-11-15T22:26:00.322Z,10.80
2022-11-15T22:28:30.575Z,10.70
2022-11-15T22:31:03.011Z,10.62
2022-11-15T22:33:35.238Z,10.58
2022-11-15T22:36:05.158Z,10.57
2022-11-15T22:38:34.740Z,10.58
2022-11-15T22:41:04.463Z,10.59
2022-11-15T22:43:32.895Z,10.59
2022-11-15T22:46:05.091Z,10.57
2022-11-15T22:48:36.196Z,10.56
2022-11-15T22:51:11.849Z,10.59
2022-11-15T22:53:41.996Z,10.62
2022-11-15T22:56:12.510Z,10.64
2022-11-15T22:58:42.904Z,10.65
2022-11-15T23:01:20.077Z,10.66
2022-11-15T23:03:48.282Z,10.69
2022-11-15T23:06:21.326Z,10.76
2022-11-15T23:08:55.878Z,10.81
2022-11-15T23:11:42.876Z,10.84
2022-11-15T23:14:12.180Z,10.87
2022-11-15T23:16:42.331Z,10.90
2022-11-15T23:19:13.750Z,10.88
2022-11-15T23:22:05.036Z,10.86
2022-11-15T23:24:33.793Z,10.85
2022-11-15T23:27:06.438Z,10.85
2022-11-15T23:29:57.270Z,10.89
2022-11-15T23:32:52.500Z,10.96
2022-11-15T23:35:27.833Z,11.04
2022-11-15T23:38:06.667Z,11.09
2022-11-15T23:40:35.775Z,11.13
2022-11-15T23:43:07.441Z,11.16
2022-11-15T23:45:38.143Z,11.17
2022-11-15T23:48:06.202Z,11.20
2022-11-15T23:50:37.070Z,11.22
2022-11-15T23:53:06.443Z,11.21
2022-11-15T23:55:41.797Z,11.19
2022-11-15T23:58:11.926Z,11.15
